Updated26/01/2021 03:30 
 

GeoURL
free counters
Scottish Weather Network UK Weather Network Cumulus Top Weather Sites

Peebles Weather - Nearby METAR Reports

Raw Data, Raw Data Expanded

Ignore low humidity and Dew Point values. Something wrong with the sensor.
Daytime temperatures are in direct sunlight so may be higher than official air temperature values.
As with any other website, we log your IP address and browser type in the server logs for diagnostic reasons. Cookies are used to record visit time and gauges preferences. No personal information is stored or processed.

All times are in local time (GMT, or BST in summer) unless specified.

2021/01/26 03:20 EGPH 260320Z 00000KT 8000 -RA BKN011 01/01 Q1011
0.2°C 0.0 mm 0.0 mm 3.0 mm 0.0 mph 0.0 mph 1006.8 hPa 10% X-Ray Solar Flare Level
Planetary K-Index
Planetary K-Index History
Station Warn Rain Snow Flood Wind Ltng Heat Cold Glob Moon Temp Rain 1h Rain Tue Rain 24h Wind 10m Gust Pressure Hum Proton Levels
snow
m Waxing Gibbous Cold F0-NE F: A: Kp:0 SSN:0

METAR Reports

 

EGPH - Edinburgh Airpor, United Kingdom
Distance from station: NNW 22mi, 36km
Updated: 26/01/2021 03:20
Light rain, Mostly cloudy
Light rain, Mostly cloudy
 Wind from calm
Wind: Calm
Temperature: 1°C
Dew Point: 1°C
Humidity: 100%
Barometer: 1011 hPa
Summary: Light rain
Clouds: Mostly cloudy
Visibility: 5 miles , 8 km
Cloud details: Mostly cloudy 335 m
2021/01/26 03:20 EGPH 260320Z 00000KT 8000 -RA BKN011 01/01 Q1011
EGOM - Spadeadam, United Kingdom
Distance from station: SSE 49mi, 79km
Updated: 26/01/2021 02:50
Mist, Mostly cloudy
Mist, Mostly cloudy
 Wind from WSW
Wind: WSW 15 mph , 24 km/h
Temperature: 1°C
Wind Chill: -4°C
Dew Point: 1°C
Humidity: 100%
Barometer: 1011 hPa
Summary: Mist
Clouds: Mostly cloudy
Visibility: 4 miles , 6 km
Cloud details: Mostly cloudy 61 m
Mostly cloudy 244 m
2021/01/26 02:50 EGOM 260250Z AUTO 25013KT 6000 BR BKN002/// BKN008/// 01/01 Q1011
 
EGNC - Carlisle, United Kingdom
Distance from station: SSE 51mi, 82km
Updated: 27/03/2020 14:50
NOT Current
Mostly cloudy
Mostly cloudy
 Wind from ENE
Wind: ENE 9 mph , 15 km/h
Temperature: 11°C
Dew Point: 4°C
Humidity: 62%
Barometer: 1029 hPa
Clouds: Mostly cloudy
Visibility: 6 miles , 9 km
Cloud details: Few Clouds 1067 m
Mostly cloudy 1372 m
2020/03/27 14:50 EGNC 271450Z 07008KT 050V110 9000 FEW035 BKN045 11/04 Q1029
EGPF - Glasgow Airport, United Kingdom
Distance from station: WNW 51mi, 82km
Updated: 26/01/2021 03:20
Mist, Thunderstorm
Mist, Thunderstorm
 Wind from varies
Wind: varies 2 mph , 4 km/h
Temperature: 1°C
Dew Point: 0°C
Humidity: 93%
Barometer: 1011 hPa
Summary: Mist
Clouds: Thunderstorm
Visibility: 2 miles , 4 km
Cloud details: Partly cloudy 274 m
Mostly cloudy 457 m
2021/01/26 03:20 EGPF 260320Z AUTO VRB02KT 3800 BR SCT009/// BKN015/// //////CB 01/00 Q1011
 
EGQL - Leuchars Raf, United Kingdom
Distance from station: NNE 53mi, 85km
Updated: 26/01/2021 02:50
Clear
Clear
 Wind from W
Wind: W 5 mph , 7 km/h
Temperature: 1°C
Wind Chill: -2°C
Dew Point: -1°C
Humidity: 87%
Barometer: 1011 hPa
Summary: Clear
Visibility: greater than 7 miles , 10 km
2021/01/26 02:50 EGQL 260250Z 27004KT CAVOK 01/M01 Q1011 BLU
EGPK - Prestwick(Civ/Na, United Kingdom
Distance from station: W 55mi, 89km
Updated: 26/01/2021 03:20
Mostly cloudy
Mostly cloudy
 Wind from SSW
Wind: SSW 8 mph , 13 km/h
Temperature: 3°C
Wind Chill: -1°C
Dew Point: 1°C
Humidity: 87%
Barometer: 1011 hPa
Clouds: Mostly cloudy
Visibility: 6 miles , 10 km
Cloud details: Mostly cloudy 1463 m
2021/01/26 03:20 EGPK 260320Z 20007KT 9999 BKN048 03/01 Q1011
 
EGPN - Dundee/Riverside, United Kingdom
Distance from station: N 56mi, 90km
Updated: 25/01/2021 15:50
NOT Current
Few Clouds
Few Clouds
 Wind from W
Wind: W 2 mph , 4 km/h
Temperature: 4°C
Dew Point: 0°C
Humidity: 75%
Barometer: 1007 hPa
Clouds: Few Clouds
Visibility: 6 miles , 10 km
Cloud details: Few Clouds 1067 m
2021/01/25 15:50 EGPN 251550Z 28002KT 9999 FEW035 04/00 Q1007
EGNT - Newcastle, United Kingdom
Distance from station: SE 72mi, 116km
Updated: 26/01/2021 03:20
Mostly cloudy
Mostly cloudy
 Wind from varies
Wind: varies 1 mph , 2 km/h
Temperature: 0°C
Dew Point: -1°C
Humidity: 93%
Barometer: 1012 hPa
Clouds: Mostly cloudy
Visibility: 6 miles , 10 km
Cloud details: Mostly cloudy 610 m
2021/01/26 03:20 EGNT 260320Z AUTO VRB01KT 9999 BKN020/// 00/M01 Q1012
 
EGNV - Tees-Side, United Kingdom
Distance from station: SE 104mi, 168km
Updated: 25/01/2021 17:50
NOT Current
Few Clouds
Few Clouds
 Wind from W
Wind: W 12 mph , 19 km/h
Temperature: 3°C
Wind Chill: -2°C
Dew Point: -1°C
Humidity: 75%
Barometer: 1009 hPa
Clouds: Few Clouds
Visibility: 6 miles , 10 km
Cloud details: Few Clouds 1372 m
2021/01/25 17:50 EGNV 251750Z 27010KT 9999 FEW045 03/M01 Q1009
EGPD - Aberdeen/Dyce, United Kingdom
Distance from station: NNE 114mi, 183km
Updated: 26/01/2021 03:20
Clear
Clear
 Wind from varies
Wind: varies 2 mph , 4 km/h
Temperature: 0°C
Dew Point: -1°C
Humidity: 93%
Barometer: 1010 hPa
Clouds: Clear
Visibility: 6 miles , 10 km
2021/01/26 03:20 EGPD 260320Z AUTO VRB02KT 9999 NCD M00/M01 Q1010 NOSIG
 
EGNS - Isle Of Man/Rona, United Kingdom
Distance from station: SSW 122mi, 197km
Updated: 26/01/2021 02:50
Few Clouds
Few Clouds
 Wind from SW
Wind: SW 9 mph , 15 km/h
Temperature: 5°C
Wind Chill: 2°C
Dew Point: 1°C
Humidity: 76%
Barometer: 1012 hPa
Clouds: Few Clouds
Visibility: 6 miles , 10 km
Cloud details: Few Clouds 762 m
2021/01/26 02:50 EGNS 260250Z 23008KT 200V260 9999 FEW025 05/01 Q1012
EGAC - Belfast Harbour, United Kingdom
Distance from station: WSW 128mi, 206km
Updated: 26/01/2021 03:20
Clear
Clear
 Wind from S
Wind: S 5 mph , 7 km/h
Temperature: 1°C
Wind Chill: -2°C
Dew Point: -2°C
Humidity: 81%
Barometer: 1011 hPa
Clouds: Clear
Visibility: 6 miles , 10 km
2021/01/26 03:20 EGAC 260320Z AUTO 18004KT 9999 NCD 01/M02 Q1011
 
EGPE - Inverness/Dalcro, United Kingdom
Distance from station: NNW 134mi, 215km
Updated: 26/01/2021 03:20
Few Clouds
Few Clouds
 Wind from calm
Wind: Calm
Temperature: -3°C
Dew Point: -4°C
Humidity: 93%
Barometer: 1011 hPa
Clouds: Few Clouds
Visibility: 6 miles , 10 km
Cloud details: Few Clouds 610 m
2021/01/26 03:20 EGPE 260320Z 00000KT 9999 FEW020 M03/M04 Q1011
XHTML 1.1 | CSS